createdAt,value
2019-04-06T00:00:53.330Z,3.95
2019-04-06T00:03:22.051Z,3.91
2019-04-06T00:05:50.454Z,3.89
2019-04-06T00:08:18.969Z,3.86
2019-04-06T00:10:47.578Z,3.84
2019-04-06T00:13:16.108Z,3.82
2019-04-06T00:15:44.532Z,3.79
2019-04-06T00:18:12.991Z,3.74
2019-04-06T00:20:41.404Z,3.72
2019-04-06T00:23:10.130Z,3.67
2019-04-06T00:25:44.292Z,3.63
2019-04-06T00:28:08.732Z,3.57
2019-04-06T00:30:44.686Z,3.56
2019-04-06T00:33:14.890Z,3.48
2019-04-06T00:35:43.502Z,3.47
2019-04-06T00:38:12.289Z,3.50
2019-04-06T00:40:40.789Z,3.57
2019-04-06T00:43:09.479Z,3.44
2019-04-06T00:45:37.962Z,2.76
2019-04-06T00:48:06.526Z,3.40
2019-04-06T00:50:35.028Z,3.43
2019-04-06T00:53:03.499Z,3.41
2019-04-06T00:55:32.175Z,3.31
2019-04-06T00:58:00.651Z,3.17
2019-04-06T01:00:29.155Z,3.17
2019-04-06T01:02:57.647Z,3.08
2019-04-06T01:05:26.031Z,3.03
2019-04-06T01:07:54.435Z,3.01
2019-04-06T01:10:23.078Z,2.97
2019-04-06T01:12:51.429Z,2.94
2019-04-06T01:15:19.822Z,2.89
2019-04-06T01:17:48.321Z,2.88
2019-04-06T01:20:16.901Z,2.88
2019-04-06T01:22:45.305Z,2.88
2019-04-06T01:25:14.074Z,2.93
2019-04-06T01:27:42.549Z,2.92
2019-04-06T01:30:11.920Z,2.85
2019-04-06T01:32:40.488Z,2.89
2019-04-06T01:35:09.329Z,2.92
2019-04-06T01:37:37.755Z,2.93
2019-04-06T01:40:08.028Z,2.84
2019-04-06T01:42:36.766Z,2.84
2019-04-06T01:45:06.467Z,2.83
2019-04-06T01:47:34.960Z,2.84
2019-04-06T01:50:03.499Z,2.81
2019-04-06T01:52:32.313Z,2.70
2019-04-06T01:55:00.713Z,2.65
2019-04-06T01:57:29.432Z,2.61
2019-04-06T01:59:57.845Z,2.52
2019-04-06T02:02:36.728Z,2.46
2019-04-06T02:05:06.981Z,2.41
2019-04-06T02:07:35.475Z,2.41
2019-04-06T02:10:05.918Z,2.54
2019-04-06T02:12:34.456Z,2.68
2019-04-06T02:15:03.400Z,2.51
2019-04-06T02:17:32.186Z,2.43
2019-04-06T02:20:00.851Z,2.43
2019-04-06T02:22:29.290Z,2.40
2019-04-06T02:24:58.038Z,2.38
2019-04-06T02:27:26.613Z,2.28
2019-04-06T02:30:12.999Z,2.28
2019-04-06T02:32:59.311Z,2.38
2019-04-06T02:35:29.366Z,2.23
2019-04-06T02:38:00.080Z,1.98
2019-04-06T02:40:36.043Z,1.89
2019-04-06T02:43:08.821Z,1.86
2019-04-06T02:45:37.304Z,1.95
2019-04-06T02:48:05.863Z,1.90
2019-04-06T02:50:34.254Z,1.82
2019-04-06T02:53:02.859Z,1.78
2019-04-06T02:55:31.264Z,1.76
2019-04-06T02:57:59.909Z,1.78
2019-04-06T03:00:28.350Z,1.75
2019-04-06T03:02:56.826Z,1.75
2019-04-06T03:05:25.549Z,1.79
2019-04-06T03:07:54.102Z,1.86
2019-04-06T03:10:22.738Z,1.84
2019-04-06T03:12:51.482Z,1.79
2019-04-06T03:15:20.118Z,1.77
2019-04-06T03:17:48.519Z,1.73
2019-04-06T03:20:16.966Z,1.76
2019-04-06T03:22:45.360Z,1.80
2019-04-06T03:25:14.013Z,1.82
2019-04-06T03:27:42.426Z,1.78
2019-04-06T03:30:11.372Z,1.76
2019-04-06T03:32:40.424Z,1.65
2019-04-06T03:35:09.371Z,1.67
2019-04-06T03:37:37.857Z,1.72
2019-04-06T03:40:07.072Z,1.62
2019-04-06T03:42:35.614Z,1.57
2019-04-06T03:45:06.075Z,1.57
2019-04-06T03:47:34.584Z,1.57
2019-04-06T03:50:03.859Z,1.54
2019-04-06T03:52:32.301Z,1.45
2019-04-06T03:55:01.157Z,1.32
2019-04-06T03:57:29.963Z,1.30
2019-04-06T03:59:58.402Z,1.28
2019-04-06T04:02:27.005Z,1.28
2019-04-06T04:04:55.484Z,1.23
2019-04-06T04:07:24.093Z,1.22
2019-04-06T04:09:52.564Z,1.20
2019-04-06T04:12:21.321Z,1.14
2019-04-06T04:14:49.779Z,1.17
2019-04-06T04:17:18.378Z,1.15
2019-04-06T04:19:46.863Z,1.09
2019-04-06T04:22:15.418Z,1.06
2019-04-06T04:24:44.000Z,1.03
2019-04-06T04:27:12.558Z,1.02
2019-04-06T04:29:41.150Z,0.98
2019-04-06T04:32:09.806Z,0.98
2019-04-06T04:34:38.290Z,0.98
2019-04-06T04:37:06.992Z,0.95
2019-04-06T04:39:35.651Z,0.93
2019-04-06T04:42:04.142Z,0.95
2019-04-06T04:44:32.562Z,1.01
2019-04-06T04:47:01.164Z,1.00
2019-04-06T04:49:29.720Z,0.98
2019-04-06T04:51:58.137Z,0.89
2019-04-06T04:54:26.638Z,0.81
2019-04-06T04:56:55.148Z,0.82
2019-04-06T04:59:23.620Z,0.85
2019-04-06T05:03:34.432Z,0.99
2019-04-06T05:06:02.841Z,0.89
2019-04-06T05:08:31.237Z,0.89
2019-04-06T05:10:59.659Z,0.89
2019-04-06T05:13:28.123Z,0.88
2019-04-06T05:16:13.423Z,0.93
2019-04-06T05:18:42.735Z,0.98
2019-04-06T05:21:12.444Z,1.35
2019-04-06T05:23:40.972Z,1.50
2019-04-06T05:26:09.463Z,1.59
2019-04-06T05:28:37.966Z,1.61
2019-04-06T05:31:06.551Z,1.60
2019-04-06T05:33:35.212Z,1.60
2019-04-06T05:36:04.175Z,1.77
2019-04-06T05:38:32.557Z,1.86
2019-04-06T05:41:01.069Z,1.93
2019-04-06T05:43:29.466Z,2.02
2019-04-06T05:45:58.033Z,2.02
2019-04-06T05:48:26.736Z,2.18
2019-04-06T05:50:55.194Z,2.40
2019-04-06T05:53:23.621Z,2.47
2019-04-06T05:55:52.071Z,2.63
2019-04-06T05:58:20.802Z,2.73
2019-04-06T06:00:49.224Z,2.92
2019-04-06T06:03:17.636Z,2.84
2019-04-06T06:05:46.040Z,2.94
2019-04-06T06:08:14.453Z,3.03
2019-04-06T06:10:42.930Z,3.17
2019-04-06T06:13:11.486Z,3.35
2019-04-06T06:15:39.877Z,3.50
2019-04-06T06:18:08.365Z,3.73
2019-04-06T06:20:36.849Z,4.00
2019-04-06T06:23:05.594Z,4.25
2019-04-06T06:25:34.005Z,4.39
2019-04-06T06:28:13.310Z,4.65
2019-04-06T06:30:32.762Z,4.85
2019-04-06T06:33:01.186Z,4.98
2019-04-06T06:35:29.883Z,4.86
2019-04-06T06:37:58.355Z,4.58
2019-04-06T06:40:26.827Z,4.49
2019-04-06T06:42:55.424Z,4.64
2019-04-06T06:45:23.913Z,4.54
2019-04-06T06:47:52.444Z,4.51
2019-04-06T06:50:21.121Z,4.54
2019-04-06T06:52:49.574Z,4.74
2019-04-06T06:55:18.203Z,4.84
2019-04-06T06:57:46.927Z,4.72
2019-04-06T07:00:15.381Z,5.17
2019-04-06T07:02:43.771Z,5.29
2019-04-06T07:05:12.510Z,5.41
2019-04-06T07:07:41.090Z,5.52
2019-04-06T07:10:10.128Z,5.65
2019-04-06T07:12:38.708Z,5.80
2019-04-06T07:15:08.101Z,5.93
2019-04-06T07:17:36.471Z,6.04
2019-04-06T07:20:06.817Z,6.13
2019-04-06T07:22:35.413Z,6.25
2019-04-06T07:25:05.181Z,6.37
2019-04-06T07:27:33.619Z,6.60
2019-04-06T07:30:02.262Z,6.93
2019-04-06T07:32:30.745Z,7.08
2019-04-06T07:34:59.348Z,7.26
2019-04-06T07:37:27.708Z,7.48
2019-04-06T07:39:56.410Z,7.69
2019-04-06T07:42:25.108Z,7.89
2019-04-06T07:44:53.533Z,8.09
2019-04-06T07:47:22.016Z,8.24
2019-04-06T07:49:50.428Z,8.47
2019-04-06T07:52:18.822Z,8.47
2019-04-06T07:54:47.350Z,8.37
2019-04-06T07:57:15.864Z,8.46
2019-04-06T07:59:44.641Z,8.46
2019-04-06T08:02:13.019Z,8.62
2019-04-06T08:04:41.674Z,8.50
2019-04-06T08:07:10.131Z,8.61
2019-04-06T08:09:38.729Z,8.61
2019-04-06T08:12:07.289Z,8.83
2019-04-06T08:14:35.954Z,9.17
2019-04-06T08:17:04.420Z,9.25
2019-04-06T08:19:32.960Z,9.78
2019-04-06T08:22:01.315Z,10.29
2019-04-06T08:24:29.752Z,10.73
2019-04-06T08:26:58.176Z,10.63
2019-04-06T08:29:26.824Z,11.02
2019-04-06T08:31:55.342Z,10.70
2019-04-06T08:34:23.932Z,11.23
2019-04-06T08:36:52.348Z,11.18
2019-04-06T08:39:20.759Z,11.13
2019-04-06T08:41:49.514Z,11.33
2019-04-06T08:44:17.959Z,11.52
2019-04-06T08:46:46.645Z,11.72
2019-04-06T08:49:15.576Z,11.96
2019-04-06T08:51:44.095Z,12.04
2019-04-06T08:54:12.539Z,11.85
2019-04-06T08:56:40.943Z,12.02
2019-04-06T08:59:12.152Z,11.99
2019-04-06T09:01:40.352Z,12.55
2019-04-06T09:04:09.076Z,12.73
2019-04-06T09:06:37.416Z,13.24
2019-04-06T09:09:07.664Z,13.93
2019-04-06T09:11:36.517Z,14.43
2019-04-06T09:14:05.308Z,15.17
2019-04-06T09:16:33.956Z,15.60
2019-04-06T09:19:02.384Z,16.19
2019-04-06T09:21:31.064Z,16.70
2019-04-06T09:23:59.548Z,17.18
2019-04-06T09:26:28.257Z,17.76
2019-04-06T09:28:56.719Z,17.99
2019-04-06T09:31:25.904Z,18.02
2019-04-06T09:33:54.510Z,17.59
2019-04-06T09:36:23.001Z,17.57
2019-04-06T09:38:51.454Z,18.43
2019-04-06T09:41:19.877Z,19.14
2019-04-06T09:43:48.320Z,19.06
2019-04-06T09:46:33.242Z,18.98
2019-04-06T09:49:09.779Z,18.64
2019-04-06T09:51:56.252Z,18.43
2019-04-06T09:54:26.336Z,18.85
2019-04-06T09:56:58.828Z,18.55
2019-04-06T09:59:35.259Z,18.51
2019-04-06T10:02:06.738Z,18.83
2019-04-06T10:04:39.377Z,19.31
2019-04-06T10:07:29.529Z,19.50
2019-04-06T10:10:02.682Z,20.17
2019-04-06T10:12:41.634Z,21.20
2019-04-06T10:15:31.374Z,21.71
2019-04-06T10:18:07.425Z,22.65
2019-04-06T10:20:53.961Z,22.22
2019-04-06T10:23:40.375Z,22.11
2019-04-06T10:26:19.350Z,22.24
2019-04-06T10:28:52.442Z,22.56
2019-04-06T10:31:34.555Z,22.18
2019-04-06T10:34:07.849Z,22.83
2019-04-06T10:36:47.269Z,23.04
2019-04-06T10:39:23.392Z,23.60
2019-04-06T10:41:56.695Z,24.04
2019-04-06T10:44:43.094Z,24.46
2019-04-06T10:47:16.235Z,23.92
2019-04-06T10:49:48.780Z,22.79
2019-04-06T10:52:18.851Z,21.26
2019-04-06T10:54:58.138Z,20.73
2019-04-06T10:57:34.037Z,20.86
2019-04-06T11:00:04.181Z,20.60
2019-04-06T11:02:50.801Z,20.31
2019-04-06T11:05:21.247Z,20.32
2019-04-06T11:07:51.703Z,20.31
2019-04-06T11:10:21.759Z,20.28
2019-04-06T11:12:51.855Z,20.68
2019-04-06T11:15:38.393Z,21.43
2019-04-06T11:18:14.309Z,22.09
2019-04-06T11:21:01.130Z,23.47
2019-04-06T11:23:31.336Z,24.42
2019-04-06T11:26:17.673Z,25.31
2019-04-06T11:28:47.873Z,26.02
2019-04-06T11:31:21.105Z,26.86
2019-04-06T11:33:51.346Z,27.25
2019-04-06T11:36:33.528Z,27.33
2019-04-06T11:39:03.688Z,27.09
2019-04-06T11:41:50.605Z,27.13
2019-04-06T11:44:20.672Z,26.65
2019-04-06T11:46:50.746Z,26.96
2019-04-06T11:49:27.121Z,26.63
2019-04-06T11:52:00.530Z,26.69
2019-04-06T11:54:30.808Z,26.59
2019-04-06T11:57:09.853Z,25.80
2019-04-06T11:59:56.495Z,24.38
2019-04-06T12:02:26.558Z,23.20
2019-04-06T12:05:08.828Z,21.93
2019-04-06T12:07:39.032Z,20.87
2019-04-06T12:10:09.404Z,20.07
2019-04-06T12:12:57.385Z,19.30
2019-04-06T12:15:36.741Z,18.41
2019-04-06T12:18:13.055Z,18.29
2019-04-06T12:20:51.633Z,18.04
2019-04-06T12:23:37.775Z,18.14
2019-04-06T12:26:23.991Z,18.08
2019-04-06T12:29:07.442Z,18.11
2019-04-06T12:31:43.592Z,17.90
2019-04-06T12:34:13.923Z,17.53
2019-04-06T12:36:50.215Z,17.30
2019-04-06T12:39:35.971Z,17.14
2019-04-06T12:42:08.769Z,17.18
2019-04-06T12:44:41.586Z,17.22
2019-04-06T12:47:17.960Z,17.33
2019-04-06T12:50:04.364Z,17.34
2019-04-06T12:52:40.281Z,17.18
2019-04-06T12:55:10.583Z,16.91
2019-04-06T12:57:46.406Z,16.91
2019-04-06T13:00:33.405Z,16.91
2019-04-06T13:03:20.178Z,17.13
2019-04-06T13:05:55.727Z,17.20
2019-04-06T13:08:34.534Z,17.16
2019-04-06T13:11:07.080Z,17.26
2019-04-06T13:13:39.949Z,17.21
2019-04-06T13:16:21.970Z,17.21
2019-04-06T13:18:57.874Z,17.14
2019-04-06T13:21:44.823Z,17.21
2019-04-06T13:24:17.757Z,17.39
2019-04-06T13:26:50.715Z,17.44
2019-04-06T13:29:29.908Z,17.50
2019-04-06T13:32:16.719Z,17.62
2019-04-06T13:34:52.982Z,17.97
2019-04-06T13:37:23.237Z,18.53
2019-04-06T13:40:11.509Z,18.91
2019-04-06T13:42:47.220Z,19.34
2019-04-06T13:45:23.074Z,19.55
2019-04-06T13:47:55.952Z,19.30
2019-04-06T13:50:35.062Z,19.40
2019-04-06T13:53:10.659Z,19.13
2019-04-06T13:55:56.778Z,19.12
2019-04-06T13:58:27.284Z,19.90
2019-04-06T14:01:00.313Z,20.56
2019-04-06T14:03:46.780Z,20.93
2019-04-06T14:06:20.075Z,20.46
2019-04-06T14:09:06.722Z,20.42
2019-04-06T14:11:42.937Z,21.02
2019-04-06T14:14:18.847Z,21.49
2019-04-06T14:17:01.071Z,21.86
2019-04-06T14:19:47.219Z,21.77
2019-04-06T14:22:22.992Z,21.89
2019-04-06T14:25:05.038Z,22.69
2019-04-06T14:27:38.099Z,22.76
2019-04-06T14:30:12.341Z,22.84
2019-04-06T14:33:00.851Z,23.08
2019-04-06T14:35:33.849Z,23.61
2019-04-06T14:38:06.922Z,23.74
2019-04-06T14:40:53.378Z,23.78
2019-04-06T14:43:39.329Z,23.39
2019-04-06T14:46:09.455Z,23.47
2019-04-06T14:48:54.546Z,23.66
2019-04-06T14:51:24.874Z,24.08
2019-04-06T14:53:57.786Z,23.80
2019-04-06T14:56:28.024Z,23.34
2019-04-06T14:59:03.972Z,22.95
2019-04-06T15:01:41.215Z,22.24
2019-04-06T15:04:09.166Z,21.44
2019-04-06T15:06:55.931Z,21.16
2019-04-06T15:09:41.062Z,21.03
2019-04-06T15:12:11.344Z,21.44
2019-04-06T15:14:58.366Z,21.46
2019-04-06T15:17:44.569Z,21.19
2019-04-06T15:20:20.661Z,21.43
2019-04-06T15:23:06.944Z,22.02
2019-04-06T15:25:51.982Z,22.06
2019-04-06T15:28:38.467Z,22.61
2019-04-06T15:31:25.182Z,22.40
2019-04-06T15:33:55.250Z,22.44
2019-04-06T15:36:42.031Z,22.40
2019-04-06T15:39:12.383Z,22.44
2019-04-06T15:41:56.181Z,22.01
2019-04-06T15:44:35.806Z,21.35
2019-04-06T15:47:12.370Z,20.67
2019-04-06T15:49:51.608Z,20.25
2019-04-06T15:52:37.777Z,20.36
2019-04-06T15:55:24.910Z,20.13
2019-04-06T15:57:57.812Z,19.87
2019-04-06T16:00:43.168Z,19.73
2019-04-06T16:03:29.828Z,19.57
2019-04-06T16:06:02.574Z,19.50
2019-04-06T16:08:41.229Z,19.52
2019-04-06T16:11:17.027Z,19.25
2019-04-06T16:13:55.877Z,19.13
2019-04-06T16:16:42.191Z,19.13
2019-04-06T16:19:21.338Z,18.88
2019-04-06T16:21:54.587Z,19.14
2019-04-06T16:24:41.619Z,19.08
2019-04-06T16:27:14.463Z,18.96
2019-04-06T16:29:53.557Z,18.83
2019-04-06T16:32:32.875Z,18.63
2019-04-06T16:34:58.521Z,18.71
2019-04-06T16:37:37.422Z,18.56
2019-04-06T16:40:18.105Z,18.39
2019-04-06T16:42:48.261Z,18.20
2019-04-06T16:45:27.131Z,18.06
2019-04-06T16:48:09.312Z,18.04
2019-04-06T16:50:39.863Z,18.01
2019-04-06T16:53:12.704Z,17.92
2019-04-06T16:55:45.798Z,17.84
2019-04-06T16:58:32.896Z,17.82
2019-04-06T17:01:03.152Z,17.76
2019-04-06T17:03:50.051Z,17.65
2019-04-06T17:06:29.083Z,17.56
2019-04-06T17:09:07.686Z,17.38
2019-04-06T17:11:47.045Z,17.32
2019-04-06T17:14:23.208Z,17.31
2019-04-06T17:17:09.263Z,17.23
2019-04-06T17:19:45.301Z,17.10
2019-04-06T17:22:18.179Z,17.02
2019-04-06T17:25:04.385Z,16.97
2019-04-06T17:27:40.096Z,16.86
2019-04-06T17:30:22.409Z,16.63
2019-04-06T17:32:55.919Z,16.62
2019-04-06T17:35:35.674Z,16.51
2019-04-06T17:38:08.976Z,16.41
2019-04-06T17:40:45.099Z,16.23
2019-04-06T17:43:18.492Z,16.15
2019-04-06T17:46:00.576Z,16.06
2019-04-06T17:48:33.375Z,15.84
2019-04-06T17:51:12.761Z,15.73
2019-04-06T17:53:52.072Z,15.57
2019-04-06T17:56:25.008Z,15.43
2019-04-06T17:59:01.044Z,15.20
2019-04-06T18:01:43.099Z,15.02
2019-04-06T18:04:15.646Z,14.96
2019-04-06T18:06:52.321Z,14.81
2019-04-06T18:09:25.011Z,14.69
2019-04-06T18:11:55.241Z,14.50
2019-04-06T18:14:24.039Z,14.38
2019-04-06T18:16:52.789Z,14.27
2019-04-06T18:19:21.554Z,14.19
2019-04-06T18:21:50.168Z,14.12
2019-04-06T18:24:19.476Z,14.05
2019-04-06T18:26:47.945Z,13.97
2019-04-06T18:29:16.435Z,13.83
2019-04-06T18:31:52.624Z,13.75
2019-04-06T18:34:21.665Z,13.63
2019-04-06T18:36:51.948Z,13.47
2019-04-06T18:39:22.376Z,13.43
2019-04-06T18:41:50.924Z,13.33
2019-04-06T18:44:19.433Z,13.32
2019-04-06T18:46:47.852Z,13.28
2019-04-06T18:49:18.155Z,13.21
2019-04-06T18:51:46.753Z,13.07
2019-04-06T18:54:15.506Z,13.04
2019-04-06T18:56:43.995Z,13.01
2019-04-06T18:59:12.962Z,12.93
2019-04-06T19:01:41.474Z,12.82
2019-04-06T19:04:10.478Z,12.77
2019-04-06T19:06:39.549Z,12.64
2019-04-06T19:09:20.750Z,12.59
2019-04-06T19:11:39.241Z,12.58
2019-04-06T19:14:07.906Z,12.52
2019-04-06T19:16:36.675Z,12.43
2019-04-06T19:19:05.688Z,12.43
2019-04-06T19:21:34.578Z,12.42
2019-04-06T19:24:03.183Z,12.41
2019-04-06T19:26:32.209Z,12.37
2019-04-06T19:29:00.921Z,12.40
2019-04-06T19:31:30.072Z,12.45
2019-04-06T19:33:58.852Z,12.48
2019-04-06T19:36:27.465Z,12.34
2019-04-06T19:38:56.279Z,12.34
2019-04-06T19:41:24.909Z,12.37
2019-04-06T19:43:53.370Z,12.43
2019-04-06T19:46:21.996Z,12.43
2019-04-06T19:48:50.596Z,12.32
2019-04-06T19:51:19.158Z,12.20
2019-04-06T19:53:48.270Z,12.18
2019-04-06T19:56:16.768Z,12.14
2019-04-06T19:58:45.185Z,12.15
2019-04-06T20:03:38.019Z,12.36
2019-04-06T20:06:05.845Z,12.24
2019-04-06T20:08:34.476Z,12.20
2019-04-06T20:11:03.587Z,12.16
2019-04-06T20:13:32.199Z,12.21
2019-04-06T20:16:00.846Z,12.16
2019-04-06T20:18:29.438Z,12.10
2019-04-06T20:20:57.855Z,11.99
2019-04-06T20:23:27.019Z,11.95
2019-04-06T20:25:55.629Z,11.92
2019-04-06T20:28:24.648Z,11.94
2019-04-06T20:30:53.277Z,11.88
2019-04-06T20:33:21.694Z,11.79
2019-04-06T20:35:50.213Z,11.79
2019-04-06T20:38:18.809Z,11.81
2019-04-06T20:40:47.267Z,11.82
2019-04-06T20:43:15.769Z,11.78
2019-04-06T20:45:44.367Z,11.78
2019-04-06T20:48:12.995Z,11.79
2019-04-06T20:50:41.475Z,11.76
2019-04-06T20:53:09.974Z,11.70
2019-04-06T20:55:38.743Z,11.66
2019-04-06T20:58:07.391Z,11.60
2019-04-06T21:00:36.258Z,11.52
2019-04-06T21:03:05.199Z,11.42
2019-04-06T21:05:33.757Z,11.32
2019-04-06T21:08:02.819Z,11.30
2019-04-06T21:10:31.612Z,11.18
2019-04-06T21:13:00.040Z,11.06
2019-04-06T21:15:28.493Z,11.00
2019-04-06T21:17:57.225Z,10.93
2019-04-06T21:20:25.720Z,10.87
2019-04-06T21:22:54.483Z,10.78
2019-04-06T21:25:23.377Z,10.70
2019-04-06T21:27:52.357Z,10.68
2019-04-06T21:30:21.383Z,10.64
2019-04-06T21:32:49.961Z,10.63
2019-04-06T21:35:18.881Z,10.60
2019-04-06T21:37:47.283Z,10.49
2019-04-06T21:40:15.976Z,10.39
2019-04-06T21:42:45.861Z,10.36
2019-04-06T21:45:15.212Z,10.32
2019-04-06T21:47:44.222Z,10.22
2019-04-06T21:50:13.656Z,10.12
2019-04-06T21:52:42.093Z,10.07
2019-04-06T21:55:13.730Z,9.96
2019-04-06T21:57:43.144Z,9.94
2019-04-06T22:00:15.282Z,9.93
2019-04-06T22:02:43.868Z,9.86
2019-04-06T22:05:12.416Z,9.90
2019-04-06T22:07:48.653Z,9.89
2019-04-06T22:10:11.869Z,9.83
2019-04-06T22:12:40.301Z,9.82
2019-04-06T22:15:10.002Z,9.79
2019-04-06T22:17:38.474Z,9.84
2019-04-06T22:20:07.407Z,9.79
2019-04-06T22:22:35.837Z,9.71
2019-04-06T22:25:05.767Z,9.68
2019-04-06T22:27:34.639Z,9.62
2019-04-06T22:30:05.869Z,9.54
2019-04-06T22:32:34.304Z,9.54
2019-04-06T22:35:03.454Z,9.55
2019-04-06T22:37:32.540Z,9.51
2019-04-06T22:40:02.272Z,9.51
2019-04-06T22:42:30.774Z,9.58
2019-04-06T22:44:59.196Z,9.61
2019-04-06T22:47:27.671Z,9.53
2019-04-06T22:49:56.143Z,9.51
2019-04-06T22:52:25.094Z,9.46
2019-04-06T22:54:54.239Z,9.41
2019-04-06T22:57:22.760Z,9.45
2019-04-06T22:59:51.399Z,9.47
2019-04-06T23:02:20.382Z,9.51
2019-04-06T23:04:51.306Z,9.47
2019-04-06T23:07:21.738Z,9.54
2019-04-06T23:09:50.283Z,9.54
2019-04-06T23:12:18.688Z,9.47
2019-04-06T23:14:47.703Z,9.42
2019-04-06T23:17:16.169Z,9.38
2019-04-06T23:19:45.350Z,9.39
2019-04-06T23:22:14.237Z,9.42
2019-04-06T23:24:43.117Z,9.31
2019-04-06T23:27:11.557Z,9.29
2019-04-06T23:29:40.044Z,9.31
2019-04-06T23:32:08.965Z,9.37
2019-04-06T23:34:37.418Z,9.38
2019-04-06T23:37:06.214Z,9.37
2019-04-06T23:39:34.670Z,9.39
2019-04-06T23:42:03.529Z,9.36
2019-04-06T23:44:31.928Z,9.32
2019-04-06T23:47:00.475Z,9.24
2019-04-06T23:49:29.142Z,9.24
2019-04-06T23:51:57.790Z,9.21
2019-04-06T23:54:26.377Z,9.18
2019-04-06T23:56:54.852Z,9.10
2019-04-06T23:59:23.417Z,8.92
